Time;durP1;ratioP1;P1;durP2;ratioP2;P2;SDS_P1;SDS_P2;PMS_P1;PMS_P2;Temp;Humidity;BMP_temperature;BMP_pressure;BME280_temperature;BME280_humidity;BME280_pressure;Samples;Min_cycle;Max_cycle;Signal;HPM_P1;HPM_P2
2022/10/16 00:00:43;;;;;;;29.05;5.18;;;;;;;;;;4991905;28;20393;-66
2022/10/16 00:03:10;;;;;;;22.23;5.07;;;;;;;;;;4990261;28;20066;-67
2022/10/16 00:05:42;;;;;;;23.20;5.50;;;;;;;;;;4992997;28;20038;-66
2022/10/16 00:08:13;;;;;;;25.55;5.32;;;;;;;;;;4993034;28;20029;-65
2022/10/16 00:10:41;;;;;;;25.17;5.68;;;;;;;;;;4992285;28;20452;-64
2022/10/16 00:13:08;;;;;;;24.90;5.03;;;;;;;;;;4989689;28;20134;-64
2022/10/16 00:15:38;;;;;;;24.73;5.25;;;;;;;;;;4987728;28;20105;-64
2022/10/16 00:18:06;;;;;;;24.80;5.15;;;;;;;;;;4986662;28;20555;-64
2022/10/16 00:20:36;;;;;;;22.08;4.93;;;;;;;;;;4990332;28;20045;-67
2022/10/16 00:23:04;;;;;;;18.27;5.22;;;;;;;;;;4992733;28;20034;-64
2022/10/16 00:25:36;;;;;;;22.55;4.80;;;;;;;;;;4992640;28;20396;-64
2022/10/16 00:28:02;;;;;;;18.55;5.80;;;;;;;;;;4991223;28;20133;-66
2022/10/16 00:30:29;;;;;;;22.00;5.57;;;;;;;;;;4987292;28;20472;-64
2022/10/16 00:32:57;;;;;;;17.45;4.85;;;;;;;;;;4980843;28;20030;-63
2022/10/16 00:35:24;;;;;;;19.23;4.60;;;;;;;;;;4983137;28;20030;-64
2022/10/16 00:37:51;;;;;;;18.80;5.18;;;;;;;;;;4981484;28;20539;-65
2022/10/16 00:40:18;;;;;;;15.70;4.80;;;;;;;;;;4983209;28;20169;-66
2022/10/16 00:42:45;;;;;;;24.98;5.32;;;;;;;;;;4983283;28;20023;-66
2022/10/16 00:45:12;;;;;;;26.38;4.95;;;;;;;;;;4981463;28;20476;-64
2022/10/16 00:47:44;;;;;;;16.58;5.60;;;;;;;;;;4980398;28;20030;-63
2022/10/16 00:50:19;;;;;;;21.27;5.30;;;;;;;;;;4956340;28;20090;-66
2022/10/16 00:52:47;;;;;;;24.08;5.35;;;;;;;;;;4973493;28;20380;-66
2022/10/16 00:55:15;;;;;;;23.85;5.20;;;;;;;;;;4980792;28;20033;-64
2022/10/16 00:57:42;;;;;;;21.20;4.95;;;;;;;;;;4984591;28;20037;-64
2022/10/16 01:00:11;;;;;;;20.45;4.88;;;;;;;;;;4989223;28;20023;-63
2022/10/16 01:02:38;;;;;;;26.83;5.25;;;;;;;;;;4980906;28;20052;-67
2022/10/16 01:05:05;;;;;;;19.98;5.05;;;;;;;;;;4982467;28;20022;-64
2022/10/16 01:07:51;;;;;;;26.73;5.30;;;;;;;;;;4987194;28;20031;-64
2022/10/16 01:10:40;;;;;;;24.00;5.18;;;;;;;;;;4978915;28;20395;-64
2022/10/16 01:13:16;;;;;;;22.90;6.72;;;;;;;;;;4981156;28;20146;-62
2022/10/16 01:15:48;;;;;;;21.75;7.00;;;;;;;;;;4980411;28;20031;-63
2022/10/16 01:18:19;;;;;;;27.42;6.35;;;;;;;;;;4982988;28;20050;-62
2022/10/16 01:20:53;;;;;;;25.98;7.00;;;;;;;;;;4983142;28;20033;-60
2022/10/16 01:23:23;;;;;;;30.77;7.63;;;;;;;;;;4986560;28;21501;-63
2022/10/16 01:25:56;;;;;;;33.63;8.63;;;;;;;;;;4985955;28;20073;-63
2022/10/16 01:28:31;;;;;;;33.15;10.07;;;;;;;;;;4989184;28;20488;-63
2022/10/16 01:30:59;;;;;;;36.22;9.98;;;;;;;;;;4990516;28;20033;-66
2022/10/16 01:33:31;;;;;;;32.58;10.65;;;;;;;;;;4990724;28;20042;-66
2022/10/16 01:36:00;;;;;;;40.40;11.83;;;;;;;;;;4990760;28;20026;-64
2022/10/16 01:38:32;;;;;;;36.03;12.98;;;;;;;;;;4990882;28;20327;-64
2022/10/16 01:41:01;;;;;;;40.47;15.37;;;;;;;;;;4990309;28;20034;-66
2022/10/16 01:43:30;;;;;;;45.38;16.90;;;;;;;;;;4989906;28;20026;-65
2022/10/16 01:45:57;;;;;;;61.55;21.70;;;;;;;;;;4990660;28;20050;-64
2022/10/16 01:48:25;;;;;;;53.97;23.55;;;;;;;;;;4990416;28;20050;-66
2022/10/16 01:51:04;;;;;;;64.38;27.08;;;;;;;;;;4990372;28;20034;-64
2022/10/16 01:53:32;;;;;;;65.57;27.70;;;;;;;;;;4989504;28;20042;-65
2022/10/16 01:55:59;;;;;;;62.00;29.58;;;;;;;;;;4990311;28;20443;-64
2022/10/16 01:58:30;;;;;;;76.13;32.25;;;;;;;;;;4990272;28;20034;-64
2022/10/16 02:00:57;;;;;;;65.55;32.97;;;;;;;;;;4990148;28;20038;-64
2022/10/16 02:03:24;;;;;;;70.75;31.15;;;;;;;;;;4990303;28;20031;-63
2022/10/16 02:05:55;;;;;;;87.28;33.22;;;;;;;;;;4990323;28;20493;-66
2022/10/16 02:08:24;;;;;;;72.57;31.23;;;;;;;;;;4992041;28;20042;-64
2022/10/16 02:10:51;;;;;;;82.28;33.92;;;;;;;;;;4992862;28;20030;-65
2022/10/16 02:13:23;;;;;;;73.88;30.88;;;;;;;;;;4993936;28;20488;-65
2022/10/16 02:15:50;;;;;;;68.18;31.30;;;;;;;;;;4993410;28;20051;-67
2022/10/16 02:18:17;;;;;;;74.47;30.42;;;;;;;;;;4993564;28;20030;-64
2022/10/16 02:20:52;;;;;;;68.45;31.23;;;;;;;;;;4993591;28;20104;-65
2022/10/16 02:23:22;;;;;;;59.53;31.02;;;;;;;;;;4991019;28;20026;-65
2022/10/16 02:25:52;;;;;;;64.53;31.27;;;;;;;;;;4993551;28;20030;-65
2022/10/16 02:28:23;;;;;;;63.42;30.88;;;;;;;;;;4990889;28;20096;-68
2022/10/16 02:30:52;;;;;;;68.28;29.25;;;;;;;;;;4993451;28;20026;-63
2022/10/16 02:33:20;;;;;;;60.00;29.45;;;;;;;;;;4993672;28;20538;-65
2022/10/16 02:35:48;;;;;;;61.72;29.15;;;;;;;;;;4993489;28;20026;-65
2022/10/16 02:38:17;;;;;;;62.08;28.90;;;;;;;;;;4993534;28;20117;-64
2022/10/16 02:40:47;;;;;;;61.65;27.90;;;;;;;;;;4991709;28;20023;-65
2022/10/16 02:43:14;;;;;;;62.72;28.50;;;;;;;;;;4975067;28;20042;-67
2022/10/16 02:45:55;;;;;;;57.58;26.52;;;;;;;;;;4990216;28;20044;-67
2022/10/16 02:48:23;;;;;;;55.95;26.52;;;;;;;;;;4991741;28;20555;-68
2022/10/16 02:50:50;;;;;;;63.00;26.50;;;;;;;;;;4992800;28;20051;-63
2022/10/16 02:53:20;;;;;;;63.40;27.10;;;;;;;;;;4994155;28;20041;-64
2022/10/16 02:55:50;;;;;;;53.65;24.63;;;;;;;;;;4994081;28;20026;-62
2022/10/16 02:58:21;;;;;;;62.30;25.38;;;;;;;;;;4994047;28;20030;-62
2022/10/16 03:00:51;;;;;;;55.95;24.17;;;;;;;;;;4993776;28;20085;-64
2022/10/16 03:03:21;;;;;;;52.65;24.17;;;;;;;;;;4993695;28;20034;-61
2022/10/16 03:05:52;;;;;;;56.00;24.75;;;;;;;;;;4994422;28;20030;-61
2022/10/16 03:08:24;;;;;;;55.13;23.75;;;;;;;;;;4994378;28;20034;-61
2022/10/16 03:10:54;;;;;;;55.75;23.85;;;;;;;;;;4994269;28;20105;-64
2022/10/16 03:13:25;;;;;;;54.22;24.75;;;;;;;;;;4988480;28;20070;-61
2022/10/16 03:15:55;;;;;;;48.38;22.73;;;;;;;;;;4984820;28;20066;-63
2022/10/16 03:18:23;;;;;;;52.63;24.08;;;;;;;;;;4984077;28;20027;-61
2022/10/16 03:20:53;;;;;;;46.90;22.33;;;;;;;;;;4990250;28;20045;-61
2022/10/16 03:23:23;;;;;;;43.65;21.23;;;;;;;;;;4994311;28;20058;-61
2022/10/16 03:25:53;;;;;;;44.33;21.08;;;;;;;;;;4994302;28;20449;-61
2022/10/16 03:28:24;;;;;;;45.58;20.95;;;;;;;;;;4994455;28;20037;-61
2022/10/16 03:30:53;;;;;;;45.03;21.23;;;;;;;;;;4994503;28;20109;-61
2022/10/16 03:33:23;;;;;;;52.03;21.23;;;;;;;;;;4994183;28;20109;-61
2022/10/16 03:35:56;;;;;;;41.67;21.45;;;;;;;;;;4994138;28;20089;-61
2022/10/16 03:38:27;;;;;;;48.95;20.92;;;;;;;;;;4994223;28;20481;-61
2022/10/16 03:40:57;;;;;;;41.47;19.63;;;;;;;;;;4994189;28;20041;-61
2022/10/16 03:43:27;;;;;;;46.42;20.75;;;;;;;;;;4994329;28;20477;-61
2022/10/16 03:45:56;;;;;;;45.85;19.70;;;;;;;;;;4994086;28;20038;-62
2022/10/16 03:48:26;;;;;;;44.60;19.08;;;;;;;;;;4993838;28;20187;-62
2022/10/16 03:50:59;;;;;;;41.30;19.02;;;;;;;;;;4955345;28;20070;-61
2022/10/16 03:53:32;;;;;;;44.83;20.95;;;;;;;;;;4955169;29;20850;-61
2022/10/16 03:56:05;;;;;;;35.45;16.75;;;;;;;;;;4955115;29;20374;-61
2022/10/16 03:58:38;;;;;;;35.28;17.33;;;;;;;;;;4955106;29;20533;-61
2022/10/16 04:01:11;;;;;;;38.50;19.05;;;;;;;;;;4955004;29;20037;-61
2022/10/16 04:03:45;;;;;;;39.08;18.02;;;;;;;;;;4955026;29;20039;-61
2022/10/16 04:06:17;;;;;;;35.83;18.90;;;;;;;;;;4954890;29;20061;-61
2022/10/16 04:08:50;;;;;;;38.70;17.25;;;;;;;;;;4955099;28;20055;-61
2022/10/16 04:11:23;;;;;;;35.83;17.27;;;;;;;;;;4969593;28;20405;-61
2022/10/16 04:13:56;;;;;;;31.73;16.58;;;;;;;;;;4955011;29;20057;-61
2022/10/16 04:16:30;;;;;;;35.25;16.33;;;;;;;;;;4954850;28;20824;-61
2022/10/16 04:19:03;;;;;;;30.00;16.55;;;;;;;;;;4954809;29;20027;-61
2022/10/16 04:21:36;;;;;;;32.40;16.05;;;;;;;;;;4954856;29;20059;-61
2022/10/16 04:24:11;;;;;;;35.08;16.70;;;;;;;;;;4954619;28;20396;-61
2022/10/16 04:26:44;;;;;;;35.00;16.35;;;;;;;;;;4954599;28;20129;-61
2022/10/16 04:29:18;;;;;;;27.90;15.40;;;;;;;;;;4954354;28;20035;-61
2022/10/16 04:31:51;;;;;;;29.88;15.52;;;;;;;;;;4954579;29;20031;-61
2022/10/16 04:34:24;;;;;;;26.02;13.95;;;;;;;;;;4954589;28;20058;-61
2022/10/16 04:36:57;;;;;;;26.33;14.93;;;;;;;;;;4954443;29;20482;-61
2022/10/16 04:39:30;;;;;;;27.33;14.77;;;;;;;;;;4954393;28;20375;-61
2022/10/16 04:42:04;;;;;;;27.23;14.88;;;;;;;;;;4954226;29;20046;-61
2022/10/16 04:44:37;;;;;;;30.33;15.65;;;;;;;;;;4954598;28;20031;-61
2022/10/16 04:47:10;;;;;;;27.27;14.40;;;;;;;;;;4954226;29;20071;-61
2022/10/16 04:49:42;;;;;;;28.55;13.93;;;;;;;;;;4978034;28;20138;-61
2022/10/16 04:52:16;;;;;;;28.17;14.40;;;;;;;;;;4973652;28;20049;-62
2022/10/16 04:54:50;;;;;;;26.48;13.55;;;;;;;;;;4973829;28;20046;-61
2022/10/16 04:57:18;;;;;;;24.25;13.32;;;;;;;;;;4974137;28;20035;-64
2022/10/16 04:59:45;;;;;;;24.98;13.48;;;;;;;;;;4980068;28;20066;-63
2022/10/16 05:02:12;;;;;;;25.77;13.60;;;;;;;;;;4992770;28;20026;-63
2022/10/16 05:04:39;;;;;;;29.90;13.90;;;;;;;;;;4992873;28;20046;-63
2022/10/16 05:07:06;;;;;;;25.75;13.55;;;;;;;;;;4992615;28;20542;-63
2022/10/16 05:09:33;;;;;;;22.48;12.40;;;;;;;;;;4992882;28;20034;-63
2022/10/16 05:12:01;;;;;;;22.35;13.25;;;;;;;;;;4992462;28;20027;-64
2022/10/16 05:14:27;;;;;;;29.38;13.60;;;;;;;;;;4992235;28;20484;-63
2022/10/16 05:16:54;;;;;;;25.73;13.15;;;;;;;;;;4992534;28;20037;-63
2022/10/16 05:19:21;;;;;;;24.92;12.63;;;;;;;;;;4992660;28;20133;-63
2022/10/16 05:21:48;;;;;;;30.05;12.65;;;;;;;;;;4992618;28;20027;-63
2022/10/16 05:24:15;;;;;;;24.85;12.80;;;;;;;;;;4992604;28;20030;-63
2022/10/16 05:26:42;;;;;;;21.95;11.93;;;;;;;;;;4992374;28;20038;-63
2022/10/16 05:29:10;;;;;;;22.13;11.65;;;;;;;;;;4992438;28;20061;-63
2022/10/16 05:31:37;;;;;;;22.88;12.00;;;;;;;;;;4992521;28;20500;-63
2022/10/16 05:34:04;;;;;;;22.27;11.70;;;;;;;;;;4992518;28;20030;-63
2022/10/16 05:36:31;;;;;;;28.23;11.63;;;;;;;;;;4992391;28;20535;-63
2022/10/16 05:38:58;;;;;;;18.85;11.45;;;;;;;;;;4992381;28;20030;-63
2022/10/16 05:41:26;;;;;;;23.60;11.98;;;;;;;;;;4993220;28;20026;-63
2022/10/16 05:43:53;;;;;;;21.10;11.07;;;;;;;;;;4996410;28;20148;-63
2022/10/16 05:46:20;;;;;;;19.00;10.93;;;;;;;;;;4995846;28;20034;-63
2022/10/16 05:48:47;;;;;;;19.33;10.60;;;;;;;;;;4998112;28;20049;-63
2022/10/16 05:51:15;;;;;;;19.27;10.85;;;;;;;;;;5015816;28;20038;-63
2022/10/16 05:53:42;;;;;;;22.67;10.95;;;;;;;;;;5015577;28;20046;-63
2022/10/16 05:56:11;;;;;;;21.10;11.38;;;;;;;;;;5015640;28;20033;-63
2022/10/16 05:58:40;;;;;;;20.40;11.07;;;;;;;;;;5015616;28;20026;-63
2022/10/16 06:01:08;;;;;;;20.98;11.05;;;;;;;;;;5009969;28;20125;-63
2022/10/16 06:03:35;;;;;;;21.38;11.68;;;;;;;;;;4996016;28;20097;-63
2022/10/16 06:06:09;;;;;;;20.67;10.38;;;;;;;;;;4995443;28;20042;-61
2022/10/16 06:08:36;;;;;;;17.17;9.98;;;;;;;;;;4996054;28;20029;-61
2022/10/16 06:11:04;;;;;;;17.83;9.88;;;;;;;;;;4995815;28;20026;-61
2022/10/16 06:13:31;;;;;;;21.38;10.73;;;;;;;;;;4995992;28;20033;-61
2022/10/16 06:15:58;;;;;;;15.73;10.13;;;;;;;;;;4995700;28;20053;-61
2022/10/16 06:18:26;;;;;;;16.52;8.98;;;;;;;;;;4978354;28;20030;-61
2022/10/16 06:20:53;;;;;;;19.38;10.10;;;;;;;;;;4995725;28;20030;-61
2022/10/16 06:23:20;;;;;;;17.35;9.88;;;;;;;;;;4995659;28;20026;-61
2022/10/16 06:25:47;;;;;;;20.10;10.30;;;;;;;;;;4995582;28;20062;-61
2022/10/16 06:28:17;;;;;;;15.55;9.32;;;;;;;;;;4995318;28;20062;-61
2022/10/16 06:30:45;;;;;;;14.43;8.95;;;;;;;;;;4995560;28;20042;-63
2022/10/16 06:33:12;;;;;;;14.00;9.43;;;;;;;;;;4995336;28;20089;-63
2022/10/16 06:35:39;;;;;;;19.23;9.48;;;;;;;;;;4995481;28;20582;-63
2022/10/16 06:38:06;;;;;;;16.30;8.73;;;;;;;;;;4995477;28;20033;-63
2022/10/16 06:40:33;;;;;;;18.75;9.73;;;;;;;;;;4995349;28;20057;-63
2022/10/16 06:43:00;;;;;;;16.90;8.75;;;;;;;;;;4995438;28;20106;-63
2022/10/16 06:45:27;;;;;;;18.20;9.27;;;;;;;;;;4995215;28;20073;-63
2022/10/16 06:47:54;;;;;;;18.10;8.82;;;;;;;;;;4995203;28;20041;-63
2022/10/16 06:50:21;;;;;;;17.52;9.38;;;;;;;;;;4994984;28;20531;-63
2022/10/16 06:52:48;;;;;;;18.65;9.07;;;;;;;;;;4995065;28;20041;-63
2022/10/16 06:55:16;;;;;;;15.90;8.15;;;;;;;;;;4995094;28;20076;-63
2022/10/16 06:57:44;;;;;;;13.05;7.75;;;;;;;;;;4995003;28;20033;-63
2022/10/16 07:00:16;;;;;;;12.77;7.85;;;;;;;;;;4994984;28;20073;-63
2022/10/16 07:02:43;;;;;;;14.80;8.38;;;;;;;;;;4994128;28;20041;-61
2022/10/16 07:05:10;;;;;;;13.40;8.30;;;;;;;;;;4993936;28;20026;-61
2022/10/16 07:07:36;;;;;;;13.88;7.90;;;;;;;;;;4993780;28;20092;-61
2022/10/16 07:10:03;;;;;;;12.82;7.75;;;;;;;;;;4994098;28;20038;-61
2022/10/16 07:12:30;;;;;;;12.77;7.72;;;;;;;;;;4994761;28;20033;-61
2022/10/16 07:14:57;;;;;;;14.73;7.88;;;;;;;;;;4994916;28;20023;-61
2022/10/16 07:17:24;;;;;;;13.73;7.47;;;;;;;;;;4994711;28;20383;-61
2022/10/16 07:19:53;;;;;;;13.77;7.80;;;;;;;;;;4994761;28;20070;-61
2022/10/16 07:22:20;;;;;;;15.50;7.57;;;;;;;;;;4994661;28;20836;-60
2022/10/16 07:24:47;;;;;;;13.13;7.15;;;;;;;;;;4994737;28;20464;-61
2022/10/16 07:27:15;;;;;;;16.20;7.45;;;;;;;;;;4976927;28;20386;-61
2022/10/16 07:29:42;;;;;;;12.20;7.30;;;;;;;;;;4994374;28;20050;-61
2022/10/16 07:32:09;;;;;;;13.25;7.68;;;;;;;;;;4994503;28;20027;-61
2022/10/16 07:34:36;;;;;;;12.18;7.47;;;;;;;;;;4994464;28;20616;-61
2022/10/16 07:37:03;;;;;;;12.50;7.30;;;;;;;;;;4994355;28;20030;-63
2022/10/16 07:39:30;;;;;;;11.68;6.90;;;;;;;;;;4994402;28;20030;-63
2022/10/16 07:41:57;;;;;;;14.27;7.20;;;;;;;;;;4994111;28;20030;-63
2022/10/16 07:44:23;;;;;;;14.40;7.05;;;;;;;;;;4977153;28;20034;-63
2022/10/16 07:46:50;;;;;;;12.05;7.07;;;;;;;;;;4994127;28;20043;-61
2022/10/16 07:49:17;;;;;;;12.80;6.53;;;;;;;;;;4993832;28;20519;-61
2022/10/16 07:51:44;;;;;;;10.75;6.63;;;;;;;;;;4994255;28;20046;-61
2022/10/16 07:54:11;;;;;;;11.57;6.53;;;;;;;;;;4994310;28;20053;-61
2022/10/16 07:56:38;;;;;;;11.40;6.80;;;;;;;;;;4994145;28;20120;-61
2022/10/16 07:59:05;;;;;;;11.55;6.78;;;;;;;;;;4994339;28;20029;-61
2022/10/16 08:01:32;;;;;;;8.43;5.50;;;;;;;;;;4993954;28;20488;-61
2022/10/16 08:03:59;;;;;;;11.20;6.43;;;;;;;;;;4993465;28;20122;-61
2022/10/16 08:06:26;;;;;;;10.48;6.07;;;;;;;;;;4994059;28;20055;-61
2022/10/16 08:08:53;;;;;;;13.40;6.82;;;;;;;;;;4993950;28;20496;-61
2022/10/16 08:11:20;;;;;;;9.32;5.75;;;;;;;;;;4994134;28;20050;-61
2022/10/16 08:13:47;;;;;;;11.05;5.95;;;;;;;;;;4994002;28;20034;-61
2022/10/16 08:16:14;;;;;;;10.10;5.70;;;;;;;;;;4993837;28;20038;-61
2022/10/16 08:18:41;;;;;;;12.13;6.47;;;;;;;;;;4993727;28;20106;-61
2022/10/16 08:21:13;;;;;;;9.32;5.97;;;;;;;;;;4993744;28;20081;-61
2022/10/16 08:23:40;;;;;;;9.07;5.88;;;;;;;;;;4993763;28;20026;-61
2022/10/16 08:26:07;;;;;;;8.80;5.22;;;;;;;;;;4993509;28;20042;-61
2022/10/16 08:28:34;;;;;;;10.73;5.93;;;;;;;;;;4993786;28;20030;-61
2022/10/16 08:31:11;;;;;;;10.05;5.90;;;;;;;;;;4993644;28;20030;-61
2022/10/16 08:33:39;;;;;;;11.02;6.10;;;;;;;;;;4975911;28;20526;-61
2022/10/16 08:36:06;;;;;;;10.07;6.13;;;;;;;;;;4993353;28;20109;-61
2022/10/16 08:38:34;;;;;;;9.43;5.05;;;;;;;;;;4993361;28;20034;-61
2022/10/16 08:41:16;;;;;;;9.52;5.82;;;;;;;;;;4993386;28;20084;-61
2022/10/16 08:43:50;;;;;;;10.10;5.60;;;;;;;;;;4993436;28;20030;-61
2022/10/16 08:46:32;;;;;;;10.73;5.80;;;;;;;;;;4992946;28;20047;-61
2022/10/16 08:49:00;;;;;;;10.25;5.82;;;;;;;;;;4993264;28;20042;-61
2022/10/16 08:51:35;;;;;;;7.90;5.07;;;;;;;;;;4993161;28;20041;-61
2022/10/16 08:54:08;;;;;;;8.73;5.70;;;;;;;;;;4993342;28;20065;-61
2022/10/16 08:56:35;;;;;;;10.25;5.82;;;;;;;;;;4992741;28;20058;-61
2022/10/16 08:59:02;;;;;;;8.82;5.40;;;;;;;;;;4993009;28;20695;-61
2022/10/16 09:01:41;;;;;;;7.95;5.15;;;;;;;;;;4992695;28;20038;-61
2022/10/16 09:04:26;;;;;;;10.02;5.18;;;;;;;;;;4992867;28;20370;-61
2022/10/16 09:06:58;;;;;;;8.95;5.03;;;;;;;;;;4992778;28;20041;-61
2022/10/16 09:09:33;;;;;;;8.15;4.88;;;;;;;;;;4992891;28;20033;-61
2022/10/16 09:12:17;;;;;;;8.80;5.63;;;;;;;;;;4992710;28;20370;-61
2022/10/16 09:14:44;;;;;;;7.75;5.10;;;;;;;;;;4992929;28;20035;-61
2022/10/16 09:17:20;;;;;;;9.07;5.47;;;;;;;;;;4991584;28;20037;-61
2022/10/16 09:19:52;;;;;;;8.57;5.28;;;;;;;;;;4992663;28;20030;-61
2022/10/16 09:22:22;;;;;;;7.60;4.47;;;;;;;;;;4992686;28;20031;-61
2022/10/16 09:24:49;;;;;;;6.97;4.63;;;;;;;;;;4975116;28;20030;-61
2022/10/16 09:27:16;;;;;;;7.60;4.53;;;;;;;;;;4992264;28;20050;-61
2022/10/16 09:29:43;;;;;;;8.60;4.53;;;;;;;;;;4992451;28;20062;-61
2022/10/16 09:32:21;;;;;;;9.57;4.90;;;;;;;;;;4992518;28;20018;-61
2022/10/16 09:34:57;;;;;;;10.43;5.10;;;;;;;;;;4992538;28;20033;-61
2022/10/16 09:37:24;;;;;;;9.25;4.97;;;;;;;;;;4992436;28;20038;-61
2022/10/16 09:39:55;;;;;;;6.43;4.35;;;;;;;;;;4992516;28;20105;-61
2022/10/16 09:42:23;;;;;;;8.77;4.75;;;;;;;;;;4992580;28;20051;-61
2022/10/16 09:44:51;;;;;;;7.85;4.90;;;;;;;;;;4992471;28;20034;-61
2022/10/16 09:47:19;;;;;;;8.80;4.60;;;;;;;;;;4992305;28;20129;-61
2022/10/16 09:50:01;;;;;;;9.40;4.60;;;;;;;;;;4992295;28;20045;-61
2022/10/16 09:52:31;;;;;;;8.88;4.78;;;;;;;;;;4992054;28;20113;-63
2022/10/16 09:55:10;;;;;;;7.18;4.95;;;;;;;;;;4992387;28;20029;-63
2022/10/16 09:57:37;;;;;;;8.65;4.55;;;;;;;;;;4992264;28;20034;-63
2022/10/16 10:00:06;;;;;;;8.80;4.35;;;;;;;;;;4992345;28;20767;-63
2022/10/16 10:02:40;;;;;;;5.82;4.07;;;;;;;;;;4992306;28;20030;-63
2022/10/16 10:05:18;;;;;;;7.03;4.18;;;;;;;;;;4992385;28;20109;-63
2022/10/16 10:07:49;;;;;;;9.45;4.78;;;;;;;;;;4974687;28;20046;-63
2022/10/16 10:10:26;;;;;;;8.38;4.28;;;;;;;;;;4992213;28;20027;-63
2022/10/16 10:12:54;;;;;;;8.27;4.60;;;;;;;;;;4992085;28;20544;-63
2022/10/16 10:15:24;;;;;;;7.70;3.92;;;;;;;;;;4992021;28;20031;-63
2022/10/16 10:17:52;;;;;;;5.93;3.78;;;;;;;;;;4991931;28;20077;-63
2022/10/16 10:20:22;;;;;;;7.30;3.70;;;;;;;;;;4992009;28;20503;-63
2022/10/16 10:22:49;;;;;;;7.88;4.53;;;;;;;;;;4991941;28;20038;-63
2022/10/16 10:25:19;;;;;;;6.43;4.20;;;;;;;;;;4992112;28;20053;-63
2022/10/16 10:27:55;;;;;;;6.15;3.85;;;;;;;;;;4993133;28;20050;-63
2022/10/16 10:30:25;;;;;;;6.28;4.15;;;;;;;;;;5008732;28;20041;-61
2022/10/16 10:33:10;;;;;;;5.60;3.67;;;;;;;;;;5015060;28;20044;-61
2022/10/16 10:36:03;;;;;;;6.32;3.95;;;;;;;;;;5015079;28;20034;-63
2022/10/16 10:38:33;;;;;;;6.90;4.10;;;;;;;;;;4992300;28;20045;-61
2022/10/16 10:41:06;;;;;;;7.22;3.47;;;;;;;;;;5014842;28;20030;-61
2022/10/16 10:43:39;;;;;;;6.85;3.53;;;;;;;;;;5015012;28;20515;-61
2022/10/16 10:46:08;;;;;;;6.10;3.40;;;;;;;;;;5014756;28;20041;-61
2022/10/16 10:48:55;;;;;;;6.10;3.50;;;;;;;;;;5014682;28;20025;-61
2022/10/16 10:51:32;;;;;;;6.22;3.83;;;;;;;;;;5014713;28;20369;-61
2022/10/16 10:54:15;;;;;;;6.95;3.35;;;;;;;;;;5014667;28;20026;-60
2022/10/16 10:56:48;;;;;;;5.82;3.67;;;;;;;;;;5014649;28;20037;-61
2022/10/16 10:59:21;;;;;;;7.63;3.30;;;;;;;;;;5014662;28;20049;-61
2022/10/16 11:02:00;;;;;;;5.30;3.17;;;;;;;;;;5014477;28;20092;-61
2022/10/16 11:04:35;;;;;;;9.02;3.78;;;;;;;;;;5014680;28;20057;-61
2022/10/16 11:07:02;;;;;;;7.32;3.35;;;;;;;;;;5014294;28;20114;-61
2022/10/16 11:09:32;;;;;;;9.38;3.33;;;;;;;;;;5014380;28;20121;-61
2022/10/16 11:12:02;;;;;;;7.65;3.25;;;;;;;;;;5014587;28;20113;-61
2022/10/16 11:14:41;;;;;;;5.63;3.25;;;;;;;;;;5014325;28;20030;-60
2022/10/16 11:17:26;;;;;;;5.50;3.33;;;;;;;;;;4996772;28;20588;-61
2022/10/16 11:19:58;;;;;;;5.65;2.83;;;;;;;;;;5014295;28;20022;-61
2022/10/16 11:22:39;;;;;;;4.63;3.10;;;;;;;;;;5014382;28;20022;-61
2022/10/16 11:25:25;;;;;;;5.32;3.38;;;;;;;;;;5014171;28;20040;-63
2022/10/16 11:27:52;;;;;;;5.40;2.97;;;;;;;;;;5013988;28;20603;-63
2022/10/16 11:30:21;;;;;;;6.43;2.92;;;;;;;;;;5014086;28;20025;-63
2022/10/16 11:32:57;;;;;;;5.00;2.85;;;;;;;;;;4996303;28;20392;-63
2022/10/16 11:35:40;;;;;;;6.07;3.10;;;;;;;;;;5013491;28;20030;-63
2022/10/16 11:38:23;;;;;;;6.03;3.10;;;;;;;;;;5013816;28;20030;-63
2022/10/16 11:40:51;;;;;;;5.93;3.20;;;;;;;;;;5013231;28;20025;-63
2022/10/16 11:43:23;;;;;;;6.68;2.78;;;;;;;;;;5013772;28;20026;-63
2022/10/16 11:45:51;;;;;;;6.90;3.00;;;;;;;;;;5013589;28;20033;-63
2022/10/16 11:48:31;;;;;;;7.95;2.47;;;;;;;;;;5013680;28;20045;-63
2022/10/16 11:51:03;;;;;;;5.38;3.00;;;;;;;;;;5013493;28;20054;-63
2022/10/16 11:53:46;;;;;;;4.63;2.97;;;;;;;;;;5013752;28;20076;-63
2022/10/16 11:56:14;;;;;;;5.32;2.85;;;;;;;;;;5013624;28;20030;-63
2022/10/16 11:58:44;;;;;;;4.47;2.92;;;;;;;;;;5013454;28;20388;-63
2022/10/16 12:01:27;;;;;;;4.68;2.50;;;;;;;;;;5013444;28;20108;-63
2022/10/16 12:04:03;;;;;;;4.47;2.78;;;;;;;;;;5013144;28;20088;-63
2022/10/16 12:06:38;;;;;;;5.00;2.70;;;;;;;;;;5013240;28;20088;-63
2022/10/16 12:09:05;;;;;;;4.78;2.70;;;;;;;;;;5013193;28;20018;-63
2022/10/16 12:11:35;;;;;;;5.80;2.70;;;;;;;;;;5013301;28;20017;-63
2022/10/16 12:14:14;;;;;;;4.72;2.47;;;;;;;;;;5013271;28;20034;-63
2022/10/16 12:16:59;;;;;;;9.20;2.78;;;;;;;;;;4979163;28;20034;-63
2022/10/16 12:19:27;;;;;;;5.45;2.58;;;;;;;;;;4974027;28;20018;-63
2022/10/16 12:21:57;;;;;;;6.18;2.70;;;;;;;;;;4974087;28;20050;-63
2022/10/16 12:24:37;;;;;;;4.57;2.70;;;;;;;;;;4974053;28;20058;-63
2022/10/16 12:27:05;;;;;;;4.07;2.42;;;;;;;;;;4973731;28;20093;-63
2022/10/16 12:29:39;;;;;;;9.48;2.60;;;;;;;;;;4974002;28;20073;-63
2022/10/16 12:32:24;;;;;;;6.53;2.67;;;;;;;;;;4973870;28;20023;-63
2022/10/16 12:34:54;;;;;;;5.75;2.88;;;;;;;;;;4973705;28;20358;-66
2022/10/16 12:37:24;;;;;;;5.63;2.45;;;;;;;;;;4973621;28;20113;-66
2022/10/16 12:39:52;;;;;;;4.82;2.58;;;;;;;;;;4972072;28;20047;-63
2022/10/16 12:42:24;;;;;;;6.10;2.90;;;;;;;;;;4973536;28;20030;-63
2022/10/16 12:44:51;;;;;;;7.45;2.53;;;;;;;;;;4978677;28;20026;-63
2022/10/16 12:47:22;;;;;;;6.85;2.60;;;;;;;;;;4982132;28;20049;-63
2022/10/16 12:49:51;;;;;;;4.32;2.55;;;;;;;;;;4980944;28;20050;-64
2022/10/16 12:52:44;;;;;;;7.30;2.00;;;;;;;;;;4982951;28;20038;-64
2022/10/16 12:55:17;;;;;;;7.22;2.65;;;;;;;;;;4980308;28;20443;-65
2022/10/16 12:57:44;;;;;;;8.90;2.58;;;;;;;;;;4983144;28;20106;-64
2022/10/16 13:00:30;;;;;;;5.63;2.72;;;;;;;;;;4981193;28;20114;-64
2022/10/16 13:02:59;;;;;;;6.07;2.78;;;;;;;;;;4982086;28;20030;-64
2022/10/16 13:05:45;;;;;;;8.10;3.05;;;;;;;;;;4986939;28;20032;-63
2022/10/16 13:08:35;;;;;;;8.18;2.95;;;;;;;;;;4992425;28;20053;-63
2022/10/16 13:11:17;;;;;;;5.63;2.50;;;;;;;;;;4965102;28;20042;-63
2022/10/16 13:13:44;;;;;;;7.68;2.78;;;;;;;;;;4986335;28;20059;-63
2022/10/16 13:16:14;;;;;;;17.20;3.00;;;;;;;;;;4972524;28;20454;-63
2022/10/16 13:19:05;;;;;;;8.90;2.90;;;;;;;;;;4972339;28;20042;-63
2022/10/16 13:21:36;;;;;;;7.38;3.05;;;;;;;;;;4970924;28;20031;-65
2022/10/16 13:24:03;;;;;;;12.75;3.20;;;;;;;;;;4972851;28;20110;-63
2022/10/16 13:26:49;;;;;;;18.25;3.55;;;;;;;;;;4972699;28;20054;-62
2022/10/16 13:29:16;;;;;;;14.18;3.30;;;;;;;;;;4972949;28;20493;-65
2022/10/16 13:31:44;;;;;;;18.98;3.35;;;;;;;;;;4972814;28;20110;-66
2022/10/16 13:34:15;;;;;;;12.63;2.80;;;;;;;;;;4972720;28;20027;-66
2022/10/16 13:36:47;;;;;;;14.73;3.17;;;;;;;;;;4972890;28;20548;-65
2022/10/16 13:39:17;;;;;;;11.52;3.03;;;;;;;;;;4981274;28;20500;-64
2022/10/16 13:41:44;;;;;;;15.88;3.05;;;;;;;;;;4977793;28;20031;-66
2022/10/16 13:44:16;;;;;;;10.98;3.08;;;;;;;;;;4987509;28;20054;-64
2022/10/16 13:46:43;;;;;;;;;;;;;;;;;;4979344;28;20500;-66
2022/10/16 13:49:15;;;;;;;19.25;3.80;;;;;;;;;;4973883;28;20041;-63
2022/10/16 13:51:42;;;;;;;14.65;3.20;;;;;;;;;;4954734;28;20038;-63
2022/10/16 13:54:12;;;;;;;21.13;3.75;;;;;;;;;;4972853;28;20034;-63
2022/10/16 13:56:40;;;;;;;13.32;3.22;;;;;;;;;;4972780;28;20392;-63
2022/10/16 13:59:23;;;;;;;15.77;2.85;;;;;;;;;;4972808;28;20042;-63
2022/10/16 14:01:51;;;;;;;13.93;3.30;;;;;;;;;;4972979;28;20057;-63
2022/10/16 14:04:18;;;;;;;10.68;2.88;;;;;;;;;;4976697;28;20488;-63
2022/10/16 14:06:46;;;;;;;14.65;3.15;;;;;;;;;;4976469;28;20503;-63
2022/10/16 14:09:25;;;;;;;10.45;2.88;;;;;;;;;;4976543;28;20061;-63
2022/10/16 14:11:54;;;;;;;9.60;2.92;;;;;;;;;;4976464;28;20073;-63
2022/10/16 14:14:21;;;;;;;11.98;2.80;;;;;;;;;;4976530;28;20034;-63
2022/10/16 14:16:48;;;;;;;15.27;3.38;;;;;;;;;;4976269;28;20034;-64
2022/10/16 14:19:21;;;;;;;11.82;2.88;;;;;;;;;;4976511;28;20035;-63
2022/10/16 14:21:48;;;;;;;16.95;3.47;;;;;;;;;;4976461;28;20045;-63
2022/10/16 14:24:35;;;;;;;16.65;3.20;;;;;;;;;;4976413;28;20038;-64
2022/10/16 14:27:03;;;;;;;12.02;3.00;;;;;;;;;;4976107;28;20035;-63
2022/10/16 14:29:35;;;;;;;16.95;3.15;;;;;;;;;;4976194;28;20529;-64
2022/10/16 14:32:04;;;;;;;14.43;3.15;;;;;;;;;;4976325;28;20034;-63
2022/10/16 14:34:33;;;;;;;14.70;3.53;;;;;;;;;;4976112;28;20023;-63
2022/10/16 14:37:04;;;;;;;13.18;3.00;;;;;;;;;;4975910;28;20033;-63
2022/10/16 14:39:31;;;;;;;11.60;2.97;;;;;;;;;;4976005;28;20064;-63
2022/10/16 14:41:59;;;;;;;15.52;3.17;;;;;;;;;;4975939;28;20038;-63
2022/10/16 14:44:44;;;;;;;14.85;3.55;;;;;;;;;;4976052;28;20030;-63
2022/10/16 14:47:14;;;;;;;19.08;3.03;;;;;;;;;;4975685;28;20556;-63
2022/10/16 14:49:42;;;;;;;12.43;3.40;;;;;;;;;;4975593;28;20078;-63
2022/10/16 14:52:13;;;;;;;13.82;3.47;;;;;;;;;;4975769;28;20030;-63